• Join FlightAware (Why Join?)
  • Login
  • US Flag 
05:44PM EDT


 

Airport Tracker/Info


-or-


 

Live Flight TrackerFlight Track Log ✈ FLG4262 ✈ 24-Sep-2013 ✈ KBGM - KDTW

Flight Track Log - Related Links

Times and Time Zones

All times are in EDT time to prevent confusion due to time zone crossing. See the FLG4262 flight status page for this flight to view local times or setup timezone preferences in your user account.

Time Position Orientation Groundspeed Altitude Reporting Facility
EDT Latitude Longitude Course Direction KTS MPH feet Rate Location/Type
06:07PM 42.2564 -76.0800 293° West 203 234 5,100  Level New York Center
06:08PM 42.2817 -76.1661 292° West 225 259 7,400 2,520 Climbing New York Center
06:09PM 42.2245 -76.5083 287° West  Level Estimated
06:09PM 42.3122 -76.2750 291° West 257 296 10,200  Level New York Center
06:10PM 42.2281 -76.6405 294° West  Level Estimated
06:10PM 42.3389 -76.3728 290° West 275 316 12,600  Level New York Center
06:11PM 42.2316 -76.7727 289° West  Level Estimated
06:11PM 42.3625 -76.4589 290° West 301 346 13,700  Level Cleveland Center
06:12PM 42.2961 -76.8777 310° West  Level FlightAware Approximate
06:12PM 42.3947 -76.5783 290° West 332 382 15,000  Level Cleveland Center
06:13PM 42.4308 -76.7089 291° West 369 425 15,000 540 Level Cleveland Center
06:14PM 42.4664 -76.8469 289° West 384 442 16,200 1,260 Climbing Cleveland Center
06:15PM 42.5031 -76.9811 290° West 383 441 17,700 1,440 Climbing Cleveland Center
06:16PM 42.5444 -77.1389 290° West 373 429 19,200 1,260 Climbing Cleveland Center
06:17PM 42.5792 -77.2717 290° West 374 430 20,400 960 Climbing Cleveland Center
06:18PM 42.5883 -77.4153 275° West 381 438 21,200 780 Climbing Cleveland Center
06:19PM 42.5961 -77.5753 274° West 390 449 22,100 780 Climbing Cleveland Center
06:20PM 42.6019 -77.7253 273° West 394 453 22,900 720 Climbing Cleveland Center
06:21PM 42.6108 -77.8761 275° West 402 463 23,700 720 Climbing Cleveland Center
06:22PM 42.6178 -78.0272 274° West 402 463 24,500 720 Climbing Cleveland Center
06:24PM 42.6242 -78.1800 273° West 404 465 25,300 720 Climbing Cleveland Center
06:25PM 42.6303 -78.3328 273° West 405 466 26,000 300 Climbing Cleveland Center
06:26PM 42.6378 -78.5203 273° West 413 475 26,000  Level Cleveland Center
06:27PM 42.6436 -78.6864 273° West 438 504 26,000  Level Cleveland Center
06:28PM 42.6508 -78.8519 273° West 443 510 26,000  Level Cleveland Center
06:29PM 42.6578 -79.0192 273° West 445 512 26,000  Level Cleveland Center
06:30PM 42.6628 -79.1872 272° West 448 516 26,000  Level Cleveland Center
06:31PM 42.6703 -79.3903 273° West 449 517 26,000  Level Cleveland Center
06:32PM 42.6656 -79.5603 268° West 451 519 26,000  Level Cleveland Center
06:33PM 42.6575 -79.7319 266° West 455 524 26,000  Level Cleveland Center
06:34PM 42.6511 -79.9017 267° West 452 520 26,000  Level Cleveland Center
06:35PM 42.6394 -80.0914 265° West 449 517 26,000  Level Cleveland Center
06:36PM 42.6333 -80.2647 267° West 455 524 26,000  Level Cleveland Center
06:37PM 42.6253 -80.4361 266° West 453 521 26,000  Level Cleveland Center
06:38PM 42.6169 -80.6089 266° West 457 526 26,000  Level Cleveland Center
06:39PM 42.6092 -80.7850 267° West 464 534 26,000 -240 Level Cleveland Center
06:40PM 42.6000 -80.9572 266° West 458 527 25,600 -780 Descending Cleveland Center
06:41PM 42.5908 -81.1356 266° West 469 540 24,400 -1,260 Descending Cleveland Center
06:42PM 42.5806 -81.3375 266° West 459 528 23,100 -1,380 Descending Cleveland Center
06:43PM 42.5700 -81.5039 265° West 445 512 21,600 -1,500 Descending Cleveland Center
06:44PM 42.5608 -81.6672 266° West 435 501 20,100 -1,500 Descending Cleveland Center
06:45PM 42.5531 -81.8136 266° West 432 497 18,600 -1,620 Descending Cleveland Center
06:46PM 42.5408 -82.0061 265° West 428 493 16,800 -1,680 Descending Cleveland Center
06:47PM 42.5314 -82.1617 265° West 419 482 15,200 -1,680 Descending Cleveland Center
06:48PM 42.5261 -82.2517 265° West 412 474 14,300 -1,560 Descending Cleveland Center
06:48PM 42.5222 -82.3133 265° West 411 473 13,600 -1,620 Descending Cleveland Center
06:49PM 42.5183 -82.3950 266° West 377 434 12,700 -1,500 Descending Cleveland Center
06:49PM 42.5128 -82.4472 262° West 369 425 12,100 -720 Descending Cleveland Center
06:50PM 42.5100 -82.5156 267° West 298 343 12,000 -120 Descending Cleveland Center
06:50PM 42.5028 -82.5608 258° West 316 364 12,000 -420 Level Cleveland Center
06:51PM 42.4794 -82.6219 243° Southwest 301 346 11,600 -1,020 Descending Cleveland Center
06:51PM 42.4583 -82.6831 245° Southwest 303 349 11,000 -1,140 Descending Cleveland Center
06:52PM 42.4422 -82.7331 246° West 303 349 10,500 -1,080 Descending Cleveland Center
06:52PM 42.4217 -82.7853 242° Southwest 303 349 9,900 -1,140 Descending Cleveland Center
06:53PM 42.4097 -82.8333 251° West 295 339 9,400 -1,260 Descending Cleveland Center
06:54PM 42.4019 -82.8894 259° West 293 337 8,600 -1,500 Descending Cleveland Center
06:54PM 42.3956 -82.9417 261° West 292 336 7,900 -1,680 Descending Cleveland Center
06:55PM 42.3872 -82.9967 258° West 289 333 6,900 -1,740 Descending Cleveland Center
06:55PM 42.3817 -83.0444 261° West 285 328 6,200 -1,680 Descending Cleveland Center
06:56PM 42.3744 -83.1006 260° West 285 328 5,200 -1,800 Descending Cleveland Center
06:56PM 42.3714 -83.1531 266° West 271 312 4,400 -1,200 Descending Cleveland Center
06:57PM 42.3411 -83.2450 246° West 259 298 3,600 -1,080 Descending Cleveland Center
06:58PM 42.3011 -83.2717 206° Southwest 253 291 2,600 -1,500 Descending Cleveland Center
06:58PM 42.2833 -83.2878 214° Southwest 221 254 2,100 -1,080 Descending Cleveland Center
06:59PM 42.2514 -83.3083 205° Southwest 215 247 1,500 -900 Descending Cleveland Center
06:59PM 42.2392 -83.3183 211° Southwest 139 160 1,200 -540 Descending Cleveland Center
07:00PM 42.2194 -83.3331 209° Southwest 182 209 1,000 -300 Descending Cleveland Center